Time;durP1;ratioP1;P1;durP2;ratioP2;P2;SDS_P1;SDS_P2;PMS_P1;PMS_P2;Temp;Humidity;BMP_temperature;BMP_pressure;BME280_temperature;BME280_humidity;BME280_pressure;Samples;Min_cycle;Max_cycle;Signal;HPM_P1;HPM_P2
2024/02/29 00:00:09;;;;;;;123.32;28.70;;;12.70;92.80;;;;;;5050588;28;20049;-51
2024/02/29 00:02:35;;;;;;;118.93;27.65;;;12.70;92.90;;;;;;5051581;28;20021;-51
2024/02/29 00:05:00;;;;;;;105.35;27.13;;;12.50;92.80;;;;;;5050705;28;20025;-51
2024/02/29 00:07:26;;;;;;;114.88;25.13;;;12.60;92.90;;;;;;5050522;28;20092;-51
2024/02/29 00:09:52;;;;;;;131.95;27.00;;;12.70;92.90;;;;;;5068023;28;20053;-51
2024/02/29 00:12:17;;;;;;;102.25;25.02;;;12.60;92.90;;;;;;5049943;28;20124;-51
2024/02/29 00:14:43;;;;;;;105.03;26.25;;;12.60;93.00;;;;;;5068115;28;20396;-51
2024/02/29 00:17:10;;;;;;;116.95;27.92;;;12.60;93.00;;;;;;5068180;28;20021;-51
2024/02/29 00:19:36;;;;;;;94.00;26.33;;;12.60;92.90;;;;;;5050407;28;20046;-51
2024/02/29 00:22:02;;;;;;;109.85;26.63;;;12.60;92.90;;;;;;5050001;28;20033;-51
2024/02/29 00:24:28;;;;;;;104.80;26.23;;;12.60;92.90;;;;;;5067703;28;20033;-51
2024/02/29 00:26:53;;;;;;;87.13;25.55;;;12.60;92.90;;;;;;5067500;28;20029;-51
2024/02/29 00:29:19;;;;;;;90.72;24.23;;;12.60;92.90;;;;;;5067797;28;20092;-52
2024/02/29 00:31:45;;;;;;;93.30;25.50;;;12.50;92.90;;;;;;5067821;28;20025;-51
2024/02/29 00:34:11;;;;;;;90.57;25.35;;;12.60;92.90;;;;;;5049799;28;20591;-52
2024/02/29 00:36:37;;;;;;;95.15;24.88;;;12.50;92.90;;;;;;5067458;28;20033;-51
2024/02/29 00:39:03;;;;;;;94.32;26.65;;;12.50;92.90;;;;;;5049729;28;20555;-52
2024/02/29 00:41:29;;;;;;;92.25;24.48;;;12.50;92.90;;;;;;5067466;28;20495;-51
2024/02/29 00:43:55;;;;;;;77.68;24.67;;;12.50;92.90;;;;;;5049650;28;20037;-51
2024/02/29 00:46:21;;;;;;;93.50;25.73;;;12.50;92.90;;;;;;5067560;28;20350;-51
2024/02/29 00:48:47;;;;;;;86.43;24.35;;;12.40;92.90;;;;;;5049618;28;20060;-51
2024/02/29 00:51:12;;;;;;;82.82;23.70;;;12.50;92.90;;;;;;5049575;28;20025;-51
2024/02/29 00:53:38;;;;;;;82.60;23.40;;;12.40;92.90;;;;;;5049455;28;20472;-51
2024/02/29 00:56:04;;;;;;;92.32;23.27;;;12.40;92.90;;;;;;5067202;28;20104;-51
2024/02/29 00:58:30;;;;;;;84.38;23.25;;;12.40;92.80;;;;;;5067109;28;20029;-51
2024/02/29 01:00:55;;;;;;;74.10;22.30;;;12.40;92.80;;;;;;5067130;28;20061;-52
2024/02/29 01:03:21;;;;;;;76.60;23.58;;;12.40;92.90;;;;;;5049288;28;20061;-51
2024/02/29 01:05:47;;;;;;;76.50;24.88;;;12.40;92.90;;;;;;5049251;28;20021;-51
2024/02/29 01:08:12;;;;;;;70.35;23.85;;;12.40;92.90;;;;;;5049096;28;20088;-51
2024/02/29 01:10:39;;;;;;;78.90;22.60;;;12.40;92.90;;;;;;5049067;28;20103;-51
2024/02/29 01:13:05;;;;;;;95.55;23.27;;;12.40;92.90;;;;;;5066945;28;20060;-52
2024/02/29 01:15:31;;;;;;;72.40;24.30;;;12.30;92.90;;;;;;5066684;28;20055;-51
2024/02/29 01:17:56;;;;;;;69.70;21.67;;;12.30;92.90;;;;;;5049178;28;20037;-51
2024/02/29 01:20:22;;;;;;;64.20;21.30;;;12.30;92.90;;;;;;5066667;28;20029;-51
2024/02/29 01:22:47;;;;;;;82.32;22.70;;;12.30;92.90;;;;;;5066659;28;20033;-51
2024/02/29 01:25:13;;;;;;;61.95;21.65;;;12.30;92.90;;;;;;5048843;28;20031;-51
2024/02/29 01:27:39;;;;;;;74.55;23.27;;;12.30;92.90;;;;;;5032381;28;20025;-51
2024/02/29 01:30:05;;;;;;;66.47;22.40;;;12.30;92.90;;;;;;5066659;28;20108;-51
2024/02/29 01:32:31;;;;;;;75.38;23.73;;;12.30;92.90;;;;;;5048616;28;20082;-51
2024/02/29 01:34:56;;;;;;;74.38;24.30;;;12.20;92.90;;;;;;5048620;28;20021;-51
2024/02/29 01:37:22;;;;;;;59.80;20.83;;;12.30;92.90;;;;;;5066315;28;20040;-52
2024/02/29 01:39:48;;;;;;;60.97;21.83;;;12.20;92.90;;;;;;5031302;28;20025;-51
2024/02/29 01:42:13;;;;;;;53.03;22.02;;;12.20;92.90;;;;;;5031891;28;20063;-51
2024/02/29 01:44:57;;;;;;;72.28;22.48;;;12.20;92.90;;;;;;5031915;28;20087;-51
2024/02/29 01:47:23;;;;;;;60.22;21.23;;;12.20;93.00;;;;;;5048691;28;20021;-51
2024/02/29 01:49:49;;;;;;;54.28;20.98;;;12.10;93.00;;;;;;5066390;28;20032;-51
2024/02/29 01:52:15;;;;;;;61.08;21.77;;;12.10;93.00;;;;;;5048494;28;20093;-51
2024/02/29 01:54:41;;;;;;;63.63;21.73;;;12.10;93.00;;;;;;5031967;28;20100;-51
2024/02/29 01:57:08;;;;;;;61.75;21.42;;;12.10;93.00;;;;;;5048526;28;20086;-51
2024/02/29 01:59:33;;;;;;;61.25;20.65;;;12.10;93.00;;;;;;5032072;28;20068;-51
2024/02/29 02:01:59;;;;;;;61.58;22.52;;;12.10;93.10;;;;;;5048987;28;20029;-52
2024/02/29 02:04:25;;;;;;;69.78;21.10;;;12.10;93.00;;;;;;5048097;28;20032;-51
2024/02/29 02:06:50;;;;;;;65.97;21.02;;;12.10;93.10;;;;;;5048338;28;20088;-51
2024/02/29 02:09:16;;;;;;;64.35;21.50;;;12.10;93.10;;;;;;5047836;28;20049;-51
2024/02/29 02:11:42;;;;;;;57.25;20.95;;;12.10;93.10;;;;;;5048462;28;20055;-52
2024/02/29 02:14:07;;;;;;;71.00;21.02;;;12.00;93.10;;;;;;5031977;28;20025;-51
2024/02/29 02:16:33;;;;;;;48.78;19.92;;;12.00;93.10;;;;;;5048732;28;20032;-52
2024/02/29 02:18:59;;;;;;;59.55;21.42;;;12.00;93.10;;;;;;5048267;28;20021;-51
2024/02/29 02:21:24;;;;;;;61.00;21.20;;;12.00;93.20;;;;;;5065890;28;20029;-51
2024/02/29 02:23:50;;;;;;;48.08;20.58;;;12.00;93.20;;;;;;5047998;28;20089;-51
2024/02/29 02:26:16;;;;;;;47.72;19.95;;;12.00;93.10;;;;;;5066038;28;20491;-51
2024/02/29 02:28:41;;;;;;;53.15;20.75;;;12.00;93.10;;;;;;5031656;28;20036;-51
2024/02/29 02:31:07;;;;;;;47.20;19.63;;;12.00;93.10;;;;;;5048150;28;20032;-51
2024/02/29 02:33:32;;;;;;;53.15;20.65;;;12.00;93.10;;;;;;5065778;28;20036;-51
2024/02/29 02:35:58;;;;;;;56.22;21.08;;;12.00;93.20;;;;;;5065715;28;20488;-51
2024/02/29 02:38:24;;;;;;;54.65;20.92;;;12.00;93.10;;;;;;5048134;28;20037;-51
2024/02/29 02:40:49;;;;;;;50.17;19.67;;;11.90;93.10;;;;;;5047954;28;20479;-51
2024/02/29 02:43:15;;;;;;;48.50;20.58;;;11.90;93.20;;;;;;5048108;28;20047;-51
2024/02/29 02:45:40;;;;;;;66.03;18.88;;;11.90;93.20;;;;;;5065739;28;20028;-51
2024/02/29 02:48:06;;;;;;;53.88;19.08;;;11.90;93.20;;;;;;5031742;28;20029;-51
2024/02/29 02:50:32;;;;;;;48.25;20.48;;;11.90;93.20;;;;;;5050440;28;20032;-52
2024/02/29 02:52:58;;;;;;;57.05;19.70;;;11.90;93.20;;;;;;5051989;28;20033;-51
2024/02/29 02:55:24;;;;;;;53.33;19.27;;;11.90;93.20;;;;;;5051583;28;20044;-51
2024/02/29 02:57:49;;;;;;;49.20;19.70;;;11.80;93.20;;;;;;5051788;28;20043;-51
2024/02/29 03:00:15;;;;;;;44.22;19.98;;;11.80;93.20;;;;;;5069503;28;20549;-51
2024/02/29 03:02:41;;;;;;;54.42;19.77;;;11.80;93.20;;;;;;5051490;28;20029;-51
2024/02/29 03:05:07;;;;;;;43.92;19.35;;;11.80;93.20;;;;;;5069585;28;20029;-51
2024/02/29 03:07:33;;;;;;;49.55;20.65;;;11.80;93.20;;;;;;5069256;28;20021;-51
2024/02/29 03:09:58;;;;;;;47.13;18.98;;;11.70;93.20;;;;;;5069341;28;20032;-51
2024/02/29 03:12:24;;;;;;;48.03;19.42;;;11.80;93.20;;;;;;5051396;28;20463;-51
2024/02/29 03:14:49;;;;;;;46.50;19.77;;;11.80;93.30;;;;;;5051784;28;20487;-51
2024/02/29 03:17:15;;;;;;;45.42;20.13;;;11.80;93.30;;;;;;5069276;28;20021;-51
2024/02/29 03:19:42;;;;;;;53.35;19.45;;;11.80;93.30;;;;;;5051080;28;20029;-51
2024/02/29 03:22:07;;;;;;;53.55;20.85;;;11.70;93.30;;;;;;5068857;28;20475;-51
2024/02/29 03:24:41;;;;;;;47.72;20.33;;;11.70;93.30;;;;;;5034543;28;20124;-51
2024/02/29 03:27:07;;;;;;;46.45;19.58;;;11.70;93.30;;;;;;5051279;28;20032;-51
2024/02/29 03:29:33;;;;;;;43.25;20.65;;;11.70;93.30;;;;;;5069017;28;20084;-51
2024/02/29 03:31:58;;;;;;;47.42;19.83;;;11.70;93.30;;;;;;5050954;28;20127;-52
2024/02/29 03:34:24;;;;;;;43.83;19.08;;;11.70;93.30;;;;;;5050994;28;20114;-51
2024/02/29 03:36:50;;;;;;;45.60;18.27;;;11.70;93.30;;;;;;5050779;28;20037;-51
2024/02/29 03:39:15;;;;;;;33.28;19.27;;;11.70;93.30;;;;;;5034338;28;20107;-51
2024/02/29 03:41:41;;;;;;;47.15;19.75;;;11.70;93.30;;;;;;5068697;28;20029;-51
2024/02/29 03:44:07;;;;;;;54.05;19.55;;;11.70;93.30;;;;;;5050734;28;20068;-51
2024/02/29 03:46:32;;;;;;;34.30;18.90;;;11.60;93.30;;;;;;5068646;28;20423;-51
2024/02/29 03:48:58;;;;;;;44.75;18.85;;;11.60;93.30;;;;;;5050812;28;20108;-51
2024/02/29 03:51:24;;;;;;;43.13;18.83;;;11.60;93.30;;;;;;5068523;28;20033;-51
2024/02/29 03:53:50;;;;;;;43.42;19.08;;;11.60;93.30;;;;;;5033971;28;20538;-51
2024/02/29 03:56:15;;;;;;;40.90;19.13;;;11.60;93.30;;;;;;5050555;28;20037;-51
2024/02/29 03:58:41;;;;;;;47.40;20.02;;;11.60;93.30;;;;;;5050582;28;20033;-51
2024/02/29 04:01:12;;;;;;;33.97;17.60;;;11.60;93.40;;;;;;5033133;28;20025;-51
2024/02/29 04:03:39;;;;;;;41.60;18.08;;;11.60;93.40;;;;;;5051222;28;20486;-51
2024/02/29 04:06:05;;;;;;;35.20;19.70;;;11.60;93.40;;;;;;5050852;28;20021;-51
2024/02/29 04:08:31;;;;;;;42.13;19.10;;;11.60;93.40;;;;;;5050493;28;20025;-51
2024/02/29 04:10:56;;;;;;;42.42;19.23;;;11.60;93.40;;;;;;5033575;28;20021;-51
2024/02/29 04:13:22;;;;;;;36.67;18.52;;;11.50;93.40;;;;;;5068031;28;20036;-51
2024/02/29 04:15:48;;;;;;;36.40;18.63;;;11.50;93.40;;;;;;5050010;28;20032;-51
2024/02/29 04:18:14;;;;;;;32.85;18.35;;;11.50;93.40;;;;;;5068059;28;20067;-51
2024/02/29 04:20:40;;;;;;;44.28;19.73;;;11.50;93.40;;;;;;5050046;28;20430;-51
2024/02/29 04:23:05;;;;;;;38.67;19.27;;;11.50;93.40;;;;;;5067857;28;20471;-51
2024/02/29 04:25:31;;;;;;;41.67;17.98;;;11.50;93.40;;;;;;5067941;28;20028;-52
2024/02/29 04:27:57;;;;;;;40.10;18.52;;;11.50;93.40;;;;;;5049900;28;20040;-51
2024/02/29 04:30:23;;;;;;;40.33;18.92;;;11.50;93.40;;;;;;5050189;28;20082;-51
2024/02/29 04:32:49;;;;;;;36.60;17.85;;;11.50;93.40;;;;;;5067803;28;20029;-51
2024/02/29 04:35:14;;;;;;;38.13;19.33;;;11.50;93.40;;;;;;5033210;28;20040;-51
2024/02/29 04:37:40;;;;;;;42.35;17.73;;;11.50;93.40;;;;;;5067424;28;20048;-51
2024/02/29 04:40:07;;;;;;;29.95;18.08;;;11.50;93.40;;;;;;5033071;28;20028;-51
2024/02/29 04:42:33;;;;;;;35.22;18.10;;;11.40;93.40;;;;;;5049572;28;20021;-51
2024/02/29 04:44:59;;;;;;;43.20;18.95;;;11.40;93.40;;;;;;5049820;28;20021;-51
2024/02/29 04:47:25;;;;;;;41.17;18.92;;;11.40;93.40;;;;;;5032825;28;20063;-52
2024/02/29 04:49:51;;;;;;;40.88;18.92;;;11.40;93.40;;;;;;5049686;28;20025;-51
2024/02/29 04:52:17;;;;;;;39.83;19.85;;;11.40;93.40;;;;;;5049503;28;20391;-51
2024/02/29 04:54:42;;;;;;;38.80;18.70;;;11.40;93.50;;;;;;5032860;28;20479;-51
2024/02/29 04:57:08;;;;;;;33.05;18.25;;;11.40;93.50;;;;;;5067261;28;20100;-51
2024/02/29 04:59:34;;;;;;;34.13;18.80;;;11.40;93.50;;;;;;5049390;28;20071;-51
2024/02/29 05:01:59;;;;;;;38.60;18.80;;;11.40;93.50;;;;;;5066985;28;20029;-51
2024/02/29 05:04:25;;;;;;;37.72;18.27;;;11.40;93.50;;;;;;5032795;28;20025;-51
2024/02/29 05:06:52;;;;;;;35.55;18.58;;;11.40;93.50;;;;;;5049170;28;20088;-51
2024/02/29 05:09:18;;;;;;;34.25;19.05;;;11.40;93.50;;;;;;5067143;28;20033;-51
2024/02/29 05:11:43;;;;;;;34.80;17.92;;;11.40;93.40;;;;;;5049414;28;20035;-51
2024/02/29 05:14:09;;;;;;;32.00;18.38;;;11.40;93.40;;;;;;5049111;28;20041;-51
2024/02/29 05:16:35;;;;;;;31.90;18.35;;;11.40;93.30;;;;;;5066847;28;20029;-51
2024/02/29 05:19:01;;;;;;;29.70;17.55;;;11.30;93.30;;;;;;5048879;28;20395;-51
2024/02/29 05:21:26;;;;;;;41.80;20.20;;;11.30;93.30;;;;;;5066671;28;20083;-51
2024/02/29 05:23:52;;;;;;;35.22;19.17;;;11.40;93.30;;;;;;5048894;28;20021;-51
2024/02/29 05:26:20;;;;;;;34.88;18.65;;;11.30;93.30;;;;;;5066599;28;20025;-51
2024/02/29 05:28:47;;;;;;;38.03;17.92;;;11.30;93.30;;;;;;5048806;28;20029;-51
2024/02/29 05:31:12;;;;;;;32.17;19.23;;;11.30;93.30;;;;;;5048886;28;20041;-51
2024/02/29 05:33:40;;;;;;;37.47;18.65;;;11.30;93.30;;;;;;5066656;28;20037;-51
2024/02/29 05:36:06;;;;;;;33.72;19.20;;;11.30;93.30;;;;;;5048577;28;20033;-51
2024/02/29 05:38:32;;;;;;;35.53;18.83;;;11.30;93.30;;;;;;5032118;28;20029;-51
2024/02/29 05:40:57;;;;;;;38.63;20.38;;;11.30;93.30;;;;;;5048599;28;20032;-51
2024/02/29 05:43:25;;;;;;;35.55;18.67;;;11.30;93.30;;;;;;5066389;28;20049;-51
2024/02/29 05:45:51;;;;;;;33.15;18.05;;;11.30;93.20;;;;;;5031940;28;20017;-51
2024/02/29 05:48:16;;;;;;;34.35;18.77;;;11.30;93.20;;;;;;5031998;28;20055;-51
2024/02/29 05:50:42;;;;;;;35.83;19.15;;;11.30;93.20;;;;;;5048585;28;20029;-51
2024/02/29 05:53:08;;;;;;;51.20;21.38;;;11.30;93.20;;;;;;5048331;28;20147;-51
2024/02/29 05:55:33;;;;;;;41.72;19.33;;;11.30;93.20;;;;;;5031861;28;20033;-51
2024/02/29 05:57:59;;;;;;;52.55;19.27;;;11.30;93.20;;;;;;5048396;28;20041;-51
2024/02/29 06:00:25;;;;;;;39.03;18.95;;;11.30;93.20;;;;;;5048166;28;20025;-51
2024/02/29 06:02:50;;;;;;;40.15;20.73;;;11.30;93.20;;;;;;5031755;28;20036;-51
2024/02/29 06:05:17;;;;;;;43.15;20.02;;;11.30;93.20;;;;;;5048445;28;20025;-51
2024/02/29 06:07:43;;;;;;;35.83;20.35;;;11.20;93.20;;;;;;5066036;28;20033;-51
2024/02/29 06:10:10;;;;;;;36.70;19.77;;;11.30;93.20;;;;;;5047430;28;20021;-51
2024/02/29 06:12:36;;;;;;;44.60;19.40;;;11.30;93.20;;;;;;5065144;28;20044;-51
2024/02/29 06:15:01;;;;;;;40.65;20.65;;;11.30;93.20;;;;;;5048263;28;20021;-51
2024/02/29 06:17:27;;;;;;;46.25;20.48;;;11.30;93.30;;;;;;5056631;28;20429;-51
2024/02/29 06:19:53;;;;;;;45.25;19.75;;;11.30;93.30;;;;;;5065235;28;20021;-51
2024/02/29 06:22:19;;;;;;;51.28;20.58;;;11.30;93.30;;;;;;5061314;28;20032;-52
2024/02/29 06:24:44;;;;;;;54.28;21.63;;;11.30;93.30;;;;;;5023260;28;20040;-51
2024/02/29 06:27:10;;;;;;;53.40;21.45;;;11.20;93.20;;;;;;5051383;28;20017;-51
2024/02/29 06:29:35;;;;;;;58.97;22.42;;;11.30;93.30;;;;;;5052830;28;20088;-51
2024/02/29 06:32:01;;;;;;;50.85;22.08;;;11.20;93.30;;;;;;5055642;28;20079;-51
2024/02/29 06:34:27;;;;;;;51.25;22.23;;;11.30;93.30;;;;;;5069055;28;20036;-51
2024/02/29 06:36:54;;;;;;;58.72;21.63;;;11.20;93.20;;;;;;5050040;28;20033;-52
2024/02/29 06:39:19;;;;;;;59.33;21.25;;;11.30;93.30;;;;;;5070003;28;20029;-51
2024/02/29 06:41:45;;;;;;;50.42;21.10;;;11.30;93.30;;;;;;5051710;28;20082;-51
2024/02/29 06:44:11;;;;;;;61.47;23.60;;;11.30;93.30;;;;;;5068791;28;20025;-51
2024/02/29 06:46:36;;;;;;;68.22;23.95;;;11.30;93.30;;;;;;5034420;28;20032;-51
2024/02/29 06:49:02;;;;;;;71.05;22.65;;;11.30;93.40;;;;;;5051801;28;20043;-51
2024/02/29 06:51:28;;;;;;;54.55;23.08;;;11.30;93.40;;;;;;5051784;28;20017;-51
2024/02/29 06:53:54;;;;;;;67.28;22.55;;;11.30;93.40;;;;;;5050979;28;20127;-51
2024/02/29 06:56:20;;;;;;;70.75;23.13;;;11.20;93.40;;;;;;5034915;28;20048;-51
2024/02/29 06:58:45;;;;;;;75.15;26.25;;;11.30;93.70;;;;;;5031567;28;20092;-51
2024/02/29 07:01:12;;;;;;;95.15;26.50;;;11.20;93.40;;;;;;4998691;28;20061;-51
2024/02/29 07:03:38;;;;;;;94.00;26.90;;;11.30;93.50;;;;;;5001274;28;20582;-51
2024/02/29 07:06:04;;;;;;;95.22;26.38;;;11.30;93.50;;;;;;5068514;28;20021;-51
2024/02/29 07:08:34;;;;;;;67.57;23.90;;;11.20;93.50;;;;;;5069380;28;20052;-51
2024/02/29 07:11:00;;;;;;;107.95;26.73;;;11.30;93.40;;;;;;5068179;28;20021;-51
2024/02/29 07:13:26;;;;;;;91.88;27.35;;;11.20;93.40;;;;;;5067267;28;20045;-51
2024/02/29 07:15:51;;;;;;;84.63;26.52;;;11.20;93.50;;;;;;5047171;28;20028;-51
2024/02/29 07:18:17;;;;;;;89.03;26.15;;;11.20;93.50;;;;;;5065485;28;20360;-51
2024/02/29 07:20:43;;;;;;;76.75;25.17;;;11.20;93.40;;;;;;5068810;28;20076;-51
2024/02/29 07:23:10;;;;;;;67.97;24.90;;;11.20;93.40;;;;;;5067455;28;20486;-51
2024/02/29 07:25:35;;;;;;;55.25;23.85;;;11.20;93.40;;;;;;5067799;28;20108;-51
2024/02/29 07:28:03;;;;;;;76.10;26.80;;;11.20;93.40;;;;;;5049756;28;20036;-51
2024/02/29 07:30:30;;;;;;;67.05;25.48;;;11.20;93.40;;;;;;5048645;28;20055;-51
2024/02/29 07:32:57;;;;;;;56.97;25.27;;;11.20;93.30;;;;;;5038638;28;20059;-51
2024/02/29 07:35:24;;;;;;;89.25;25.08;;;11.20;93.30;;;;;;5031058;28;20040;-51
2024/02/29 07:37:50;;;;;;;69.38;26.65;;;11.20;93.30;;;;;;5051504;28;20068;-51
2024/02/29 07:40:15;;;;;;;58.95;25.30;;;11.20;93.30;;;;;;5057151;28;20025;-51
2024/02/29 07:42:41;;;;;;;60.72;25.67;;;11.20;93.40;;;;;;5041143;28;20024;-51
2024/02/29 07:45:08;;;;;;;66.88;24.50;;;11.20;93.30;;;;;;5029884;28;20044;-51
2024/02/29 07:47:34;;;;;;;63.85;23.80;;;11.20;93.30;;;;;;5043482;28;20077;-51
2024/02/29 07:49:59;;;;;;;63.45;26.15;;;11.20;93.30;;;;;;5029169;28;20056;-51
2024/02/29 07:52:25;;;;;;;62.35;25.63;;;11.20;93.30;;;;;;5062794;28;20026;-51
2024/02/29 07:54:51;;;;;;;52.53;24.55;;;11.20;93.30;;;;;;5037209;28;20029;-51
2024/02/29 07:57:17;;;;;;;53.08;25.50;;;11.20;93.20;;;;;;5035134;28;20033;-52
2024/02/29 07:59:43;;;;;;;45.63;23.17;;;11.20;93.20;;;;;;5038436;28;20079;-51
2024/02/29 08:02:09;;;;;;;50.55;23.95;;;11.20;93.20;;;;;;5071811;28;20025;-51
2024/02/29 08:04:36;;;;;;;48.53;23.50;;;11.20;93.20;;;;;;5044341;28;20092;-51
2024/02/29 08:07:02;;;;;;;55.90;24.73;;;11.20;93.20;;;;;;5046686;28;20025;-51
2024/02/29 08:09:28;;;;;;;45.35;23.65;;;11.20;93.20;;;;;;5045740;28;20048;-51
2024/02/29 08:11:54;;;;;;;58.40;25.13;;;11.20;93.20;;;;;;5036351;28;20033;-51
2024/02/29 08:14:20;;;;;;;50.20;24.20;;;11.20;93.20;;;;;;5044941;28;20041;-51
2024/02/29 08:16:45;;;;;;;50.08;22.95;;;11.20;93.10;;;;;;5045011;28;20087;-51
2024/02/29 08:19:11;;;;;;;45.30;23.52;;;11.20;93.10;;;;;;5054821;28;20039;-51
2024/02/29 08:21:37;;;;;;;51.70;25.23;;;11.20;93.30;;;;;;5056361;28;20036;-51
2024/02/29 08:24:03;;;;;;;50.08;25.05;;;11.20;93.00;;;;;;5045144;28;20048;-51
2024/02/29 08:26:29;;;;;;;51.83;23.02;;;11.30;93.00;;;;;;5036126;28;20025;-51
2024/02/29 08:28:54;;;;;;;53.40;24.48;;;11.40;93.00;;;;;;5046643;28;20035;-51
2024/02/29 08:31:20;;;;;;;41.22;23.48;;;11.30;92.90;;;;;;5037583;28;20088;-51
2024/02/29 08:33:46;;;;;;;45.45;23.50;;;11.30;92.90;;;;;;5019857;28;20029;-52
2024/02/29 08:36:12;;;;;;;42.80;24.02;;;11.30;92.90;;;;;;5046020;28;20025;-51
2024/02/29 08:38:38;;;;;;;50.95;23.60;;;11.30;92.80;;;;;;5029154;28;20033;-51
2024/02/29 08:41:04;;;;;;;51.30;25.63;;;11.40;92.90;;;;;;5043610;28;20029;-51
2024/02/29 08:43:30;;;;;;;58.17;24.27;;;11.30;92.80;;;;;;5042726;28;20021;-51
2024/02/29 08:45:56;;;;;;;58.03;24.95;;;11.40;92.80;;;;;;5027114;28;20024;-51
2024/02/29 08:48:22;;;;;;;54.83;24.40;;;11.40;92.80;;;;;;5027470;28;20025;-51
2024/02/29 08:50:47;;;;;;;51.63;24.70;;;11.40;92.80;;;;;;5045526;28;20467;-51
2024/02/29 08:53:13;;;;;;;72.82;26.42;;;11.40;92.80;;;;;;5045470;28;20043;-51
2024/02/29 08:55:39;;;;;;;65.82;26.55;;;11.50;92.80;;;;;;5057674;28;20029;-51
2024/02/29 08:58:04;;;;;;;57.10;25.20;;;11.50;92.80;;;;;;5029309;28;20495;-51
2024/02/29 09:00:30;;;;;;;53.90;25.10;;;11.50;92.70;;;;;;5027110;28;20036;-51
2024/02/29 09:02:56;;;;;;;52.88;23.38;;;11.50;92.70;;;;;;5039729;28;20029;-51
2024/02/29 09:05:22;;;;;;;67.32;24.90;;;11.50;92.70;;;;;;5056166;28;20025;-51
2024/02/29 09:07:48;;;;;;;62.67;24.73;;;11.50;92.70;;;;;;5043042;28;20047;-51
2024/02/29 09:10:14;;;;;;;52.53;25.52;;;11.50;92.70;;;;;;5043677;28;20021;-51
2024/02/29 09:12:40;;;;;;;55.97;24.13;;;11.60;92.70;;;;;;5032681;28;20037;-51
2024/02/29 09:15:06;;;;;;;62.60;23.98;;;11.60;92.70;;;;;;5043304;28;20283;-52
2024/02/29 09:17:32;;;;;;;41.30;23.30;;;11.60;92.70;;;;;;5055087;28;20118;-51
2024/02/29 09:19:57;;;;;;;50.85;23.08;;;11.60;92.70;;;;;;5047376;28;20104;-51
2024/02/29 09:22:23;;;;;;;45.63;23.27;;;11.60;92.70;;;;;;5054003;28;20083;-52
2024/02/29 09:24:49;;;;;;;60.50;24.38;;;11.60;92.60;;;;;;5056742;28;20047;-51
2024/02/29 09:27:14;;;;;;;52.03;23.88;;;11.60;92.70;;;;;;5045028;28;20040;-51
2024/02/29 09:29:41;;;;;;;57.25;22.70;;;11.70;92.70;;;;;;5052169;28;20025;-51
2024/02/29 09:32:07;;;;;;;50.65;23.48;;;11.70;92.60;;;;;;5027082;28;20037;-51
2024/02/29 09:34:34;;;;;;;67.63;24.92;;;11.80;92.60;;;;;;5045168;28;20035;-51
2024/02/29 09:37:00;;;;;;;54.58;24.27;;;11.80;92.90;;;;;;5043086;28;20037;-51
2024/02/29 09:39:26;;;;;;;67.72;24.50;;;11.80;92.50;;;;;;5054401;28;20041;-51
2024/02/29 09:41:53;;;;;;;50.13;23.40;;;11.90;92.50;;;;;;5055846;28;20142;-51
2024/02/29 09:44:19;;;;;;;72.07;26.55;;;11.90;92.40;;;;;;5027144;28;20112;-51
2024/02/29 09:46:46;;;;;;;56.55;26.95;;;11.90;92.40;;;;;;5043846;28;20061;-51
2024/02/29 09:49:13;;;;;;;64.30;24.48;;;11.90;92.40;;;;;;5043207;28;20052;-51
2024/02/29 09:51:39;;;;;;;58.28;24.05;;;11.90;92.50;;;;;;5020071;28;20266;-51
2024/02/29 09:54:06;;;;;;;53.88;24.45;;;11.90;92.50;;;;;;5028180;28;20046;-51
2024/02/29 09:56:32;;;;;;;366.10;52.53;;;12.00;92.60;;;;;;5044324;28;20053;-51
2024/02/29 09:58:59;;;;;;;123.40;28.35;;;12.00;92.70;;;;;;5036349;28;20041;-51
2024/02/29 10:01:26;;;;;;;71.20;26.48;;;12.00;92.70;;;;;;5030774;28;20087;-52
2024/02/29 10:03:51;;;;;;;77.93;26.52;;;12.00;92.70;;;;;;5042542;28;20102;-51
2024/02/29 10:06:17;;;;;;;81.45;26.48;;;12.00;92.70;;;;;;5033976;28;20017;-51
2024/02/29 10:08:42;;;;;;;70.82;24.30;;;12.00;92.70;;;;;;5055107;28;20018;-51
2024/02/29 10:11:08;;;;;;;72.50;26.45;;;12.00;92.70;;;;;;5034294;28;20021;-51
2024/02/29 10:13:40;;;;;;;108.65;29.08;;;12.00;92.60;;;;;;5051359;28;20040;-51
2024/02/29 10:16:07;;;;;;;102.22;27.92;;;12.00;92.70;;;;;;5044559;28;20028;-51
2024/02/29 10:18:35;;;;;;;76.07;26.38;;;12.10;92.70;;;;;;5038503;28;20120;-51
2024/02/29 10:21:02;;;;;;;65.00;23.60;;;12.10;92.60;;;;;;5043825;28;20026;-51
2024/02/29 10:23:30;;;;;;;61.15;24.83;;;12.10;92.60;;;;;;5052807;28;20464;-51
2024/02/29 10:25:56;;;;;;;48.60;24.42;;;12.10;92.50;;;;;;5044667;28;20035;-52
2024/02/29 10:28:21;;;;;;;43.90;23.08;;;12.10;92.40;;;;;;5027163;28;20455;-51
2024/02/29 10:30:56;;;;;;;49.30;22.60;;;12.20;92.40;;;;;;5055190;28;20021;-51
2024/02/29 10:33:21;;;;;;;46.97;23.05;;;12.20;92.20;;;;;;5044392;28;20029;-51
2024/02/29 10:35:48;;;;;;;48.35;23.85;;;12.20;92.20;;;;;;5043241;28;20021;-51
2024/02/29 10:38:14;;;;;;;57.28;23.58;;;12.20;92.20;;;;;;5027443;28;20056;-51
2024/02/29 10:40:40;;;;;;;64.43;23.85;;;12.20;92.20;;;;;;5054418;28;20037;-51
2024/02/29 10:43:09;;;;;;;65.93;23.67;;;12.30;92.20;;;;;;5043579;28;20041;-51
2024/02/29 10:45:36;;;;;;;57.03;24.00;;;12.30;92.10;;;;;;5042513;28;20021;-51
2024/02/29 10:48:29;;;;;;;71.05;25.83;;;12.30;92.10;;;;;;5043343;28;20106;-51
2024/02/29 10:51:16;;;;;;;96.85;25.92;;;12.40;92.20;;;;;;5056558;28;20478;-51
2024/02/29 10:53:59;;;;;;;94.88;26.58;;;12.40;92.20;;;;;;5040770;28;20033;-51
2024/02/29 10:56:27;;;;;;;118.97;27.60;;;12.40;92.20;;;;;;5055772;28;20351;-51
2024/02/29 10:59:10;;;;;;;90.57;27.90;;;12.50;92.20;;;;;;5039297;28;20064;-51
2024/02/29 11:01:37;;;;;;;69.78;26.48;;;12.50;92.20;;;;;;5042930;28;20043;-51
2024/02/29 11:04:03;;;;;;;115.32;27.08;;;12.50;92.00;;;;;;5041070;28;20026;-58
2024/02/29 11:06:47;;;;;;;106.85;28.20;;;12.60;91.90;;;;;;5042263;28;20081;-58
2024/02/29 11:09:20;;;;;;;87.50;24.90;;;12.60;91.80;;;;;;5042367;28;20090;-58
2024/02/29 11:11:47;;;;;;;121.95;29.00;;;12.60;91.70;;;;;;5045785;28;20040;-57
2024/02/29 11:14:13;;;;;;;93.82;26.92;;;12.60;91.90;;;;;;5046246;28;20030;-58
2024/02/29 11:16:42;;;;;;;93.90;25.73;;;12.70;91.80;;;;;;5029967;28;20100;-58
2024/02/29 11:19:11;;;;;;;138.10;29.33;;;12.70;91.80;;;;;;5046336;28;20037;-58
2024/02/29 11:21:37;;;;;;;92.65;26.25;;;12.70;91.80;;;;;;5056119;28;20395;-57
2024/02/29 11:24:04;;;;;;;89.95;27.35;;;12.70;91.70;;;;;;5057167;28;20029;-58
2024/02/29 11:26:33;;;;;;;80.32;24.80;;;12.80;91.70;;;;;;5046294;28;20021;-58
2024/02/29 11:29:09;;;;;;;121.38;29.33;;;12.80;91.60;;;;;;5048997;28;20031;-58
2024/02/29 11:31:46;;;;;;;84.45;26.48;;;12.80;91.60;;;;;;5044293;28;20055;-58
2024/02/29 11:34:12;;;;;;;82.05;23.80;;;12.90;91.60;;;;;;5045669;28;20032;-58
2024/02/29 11:36:38;;;;;;;95.55;25.60;;;12.90;91.40;;;;;;5046248;28;20026;-58
2024/02/29 11:39:05;;;;;;;121.22;28.25;;;12.90;91.30;;;;;;5046156;28;20036;-58
2024/02/29 11:41:30;;;;;;;68.95;23.60;;;12.90;91.40;;;;;;5045898;28;20029;-58
2024/02/29 11:43:56;;;;;;;64.93;22.55;;;13.00;91.30;;;;;;5037154;28;20025;-58
2024/02/29 11:46:22;;;;;;;92.45;23.95;;;13.00;91.10;;;;;;5047220;28;20020;-58
2024/02/29 11:48:48;;;;;;;102.43;25.35;;;13.00;91.10;;;;;;5030462;28;20025;-58
2024/02/29 11:51:14;;;;;;;80.15;24.02;;;13.10;91.20;;;;;;5059103;28;20048;-58
2024/02/29 11:53:40;;;;;;;86.72;23.65;;;13.10;91.00;;;;;;5045217;28;20423;-58
2024/02/29 11:56:06;;;;;;;102.40;24.70;;;13.10;90.90;;;;;;5037796;28;20116;-58
2024/02/29 11:58:33;;;;;;;84.28;23.48;;;13.10;90.90;;;;;;5044390;28;20041;-58
2024/02/29 12:01:05;;;;;;;93.38;24.13;;;13.10;90.90;;;;;;5047612;28;20468;-58
2024/02/29 12:03:31;;;;;;;103.78;24.83;;;13.20;91.00;;;;;;5045635;28;20032;-51
2024/02/29 12:05:57;;;;;;;95.57;22.20;;;13.20;90.90;;;;;;5057958;28;20081;-52
2024/02/29 12:08:26;;;;;;;83.28;23.67;;;13.20;90.90;;;;;;5041397;28;20040;-52
2024/02/29 12:10:55;;;;;;;84.10;24.00;;;13.20;90.90;;;;;;5044793;28;20025;-51
2024/02/29 12:13:20;;;;;;;87.85;23.55;;;13.20;90.80;;;;;;5047108;28;20034;-51
2024/02/29 12:15:46;;;;;;;73.53;22.25;;;13.20;90.70;;;;;;5032152;28;20100;-51
2024/02/29 12:18:12;;;;;;;61.75;20.13;;;13.30;90.90;;;;;;5045242;28;20033;-51
2024/02/29 12:20:37;;;;;;;54.45;20.50;;;13.30;90.70;;;;;;5029375;28;20036;-52